createdAt,value
2022-09-15T00:00:21.455Z,13.60
2022-09-15T00:05:22.174Z,14.30
2022-09-15T00:10:22.986Z,16.50
2022-09-15T00:15:23.741Z,14.40
2022-09-15T00:20:24.465Z,14.20
2022-09-15T00:25:25.190Z,13.10
2022-09-15T00:30:25.991Z,14.60
2022-09-15T00:35:26.726Z,14.00
2022-09-15T00:40:27.504Z,15.40
2022-09-15T00:45:28.349Z,16.10
2022-09-15T00:50:29.099Z,19.60
2022-09-15T00:55:29.764Z,19.40
2022-09-15T01:00:30.601Z,17.90
2022-09-15T01:05:31.335Z,14.80
2022-09-15T01:10:32.062Z,15.40
2022-09-15T01:15:32.852Z,14.40
2022-09-15T01:20:33.565Z,15.50
2022-09-15T01:25:34.353Z,17.80
2022-09-15T01:30:35.071Z,15.00
2022-09-15T01:35:35.803Z,15.50
2022-09-15T01:40:36.518Z,14.80
2022-09-15T01:45:37.391Z,12.80
2022-09-15T01:50:38.120Z,12.30
2022-09-15T01:55:38.863Z,14.00
2022-09-15T02:00:39.627Z,12.30
2022-09-15T02:05:40.355Z,12.50
2022-09-15T02:10:41.098Z,14.60
2022-09-15T02:15:41.811Z,13.40
2022-09-15T02:20:42.551Z,16.60
2022-09-15T02:25:43.266Z,14.20
2022-09-15T02:30:44.060Z,13.90
2022-09-15T02:35:44.783Z,13.10
2022-09-15T02:40:45.511Z,14.30
2022-09-15T02:45:46.224Z,18.10
2022-09-15T02:50:46.949Z,13.00
2022-09-15T02:55:47.718Z,14.80
2022-09-15T03:00:48.549Z,14.00
2022-09-15T03:05:49.285Z,14.40
2022-09-15T03:10:50.072Z,15.00
2022-09-15T03:15:50.812Z,14.10
2022-09-15T03:20:51.522Z,12.60
2022-09-15T03:25:52.310Z,14.00
2022-09-15T03:30:53.065Z,12.40
2022-09-15T03:35:53.835Z,12.20
2022-09-15T03:40:54.575Z,13.20
2022-09-15T03:45:55.375Z,15.70
2022-09-15T03:50:56.147Z,12.60
2022-09-15T03:55:56.899Z,16.60
2022-09-15T04:01:04.627Z,15.00
2022-09-15T04:05:58.387Z,16.00
2022-09-15T04:10:59.063Z,15.50
2022-09-15T04:15:59.597Z,18.10
2022-09-15T04:21:00.221Z,16.10
2022-09-15T04:26:01.062Z,18.80
2022-09-15T04:31:01.756Z,19.90
2022-09-15T04:36:02.380Z,16.10
2022-09-15T04:41:03.055Z,18.10
2022-09-15T04:46:03.731Z,12.60
2022-09-15T04:51:04.724Z,15.30
2022-09-15T04:56:04.896Z,16.10
2022-09-15T05:01:05.652Z,15.60
2022-09-15T05:06:06.290Z,16.50
2022-09-15T05:11:07.030Z,15.20
2022-09-15T05:16:08.794Z,15.20
2022-09-15T05:21:08.473Z,14.60
2022-09-15T05:26:09.156Z,14.80
2022-09-15T05:31:09.972Z,14.50
2022-09-15T05:36:10.609Z,13.90
2022-09-15T05:41:11.806Z,15.20
2022-09-15T05:46:12.143Z,18.90
2022-09-15T05:51:12.854Z,17.10
2022-09-15T05:56:15.042Z,14.00
2022-09-15T06:01:14.208Z,13.70
2022-09-15T06:06:14.927Z,14.50
2022-09-15T06:11:15.605Z,14.80
2022-09-15T06:16:16.322Z,13.90
2022-09-15T06:21:16.964Z,12.90
2022-09-15T06:26:17.704Z,12.10
2022-09-15T06:31:18.472Z,11.10
2022-09-15T06:36:19.122Z,13.70
2022-09-15T06:41:19.961Z,10.90
2022-09-15T06:46:20.713Z,13.40
2022-09-15T06:51:21.401Z,12.10
2022-09-15T06:56:22.072Z,11.50
2022-09-15T07:01:22.873Z,14.00
2022-09-15T07:06:23.555Z,12.50
2022-09-15T07:11:24.265Z,13.00
2022-09-15T07:16:25.013Z,11.50
2022-09-15T07:21:25.747Z,13.40
2022-09-15T07:26:26.418Z,12.20
2022-09-15T07:31:27.201Z,13.90
2022-09-15T07:36:27.839Z,12.30
2022-09-15T07:41:28.521Z,18.00
2022-09-15T07:46:29.232Z,13.90
2022-09-15T07:51:29.969Z,11.60
2022-09-15T07:56:30.663Z,13.30
2022-09-15T08:01:31.425Z,10.90
2022-09-15T08:06:33.397Z,13.60
2022-09-15T08:11:32.571Z,10.00
2022-09-15T08:16:33.320Z,10.40
2022-09-15T08:21:33.993Z,10.90
2022-09-15T08:26:34.699Z,10.60
2022-09-15T08:31:35.481Z,11.10
2022-09-15T08:36:36.191Z,11.50
2022-09-15T08:41:36.862Z,11.50
2022-09-15T08:46:37.598Z,12.10
2022-09-15T08:51:38.278Z,9.30
2022-09-15T08:56:38.984Z,9.70
2022-09-15T09:01:39.744Z,11.40
2022-09-15T09:06:40.539Z,9.10
2022-09-15T09:11:41.246Z,10.20
2022-09-15T09:16:41.934Z,9.60
2022-09-15T09:21:42.616Z,10.90
2022-09-15T09:26:43.274Z,8.30
2022-09-15T09:31:43.999Z,9.90
2022-09-15T09:36:44.754Z,10.90
2022-09-15T09:41:45.444Z,8.20
2022-09-15T09:46:46.168Z,10.30
2022-09-15T09:51:46.819Z,9.10
2022-09-15T09:56:47.519Z,9.00
2022-09-15T10:01:55.419Z,11.20
2022-09-15T10:06:49.327Z,8.80
2022-09-15T10:11:50.432Z,10.70
2022-09-15T10:16:50.953Z,7.90
2022-09-15T10:21:51.352Z,9.40
2022-09-15T10:26:55.903Z,9.10
2022-09-15T10:31:52.853Z,9.30
2022-09-15T10:36:53.235Z,8.10
2022-09-15T10:41:54.213Z,8.30
2022-09-15T10:46:54.586Z,8.20
2022-09-15T10:51:55.407Z,8.40
2022-09-15T10:56:56.121Z,8.20
2022-09-15T11:01:57.013Z,7.10
2022-09-15T11:06:57.976Z,6.50
2022-09-15T11:11:58.680Z,9.70
2022-09-15T11:16:59.400Z,9.10
2022-09-15T11:22:00.109Z,7.60
2022-09-15T11:27:00.812Z,10.20
2022-09-15T11:37:02.182Z,7.70
2022-09-15T11:42:02.831Z,8.60
2022-09-15T11:47:03.503Z,6.40
2022-09-15T11:52:04.203Z,11.50
2022-09-15T11:57:04.899Z,8.80
2022-09-15T12:02:05.693Z,8.90
2022-09-15T12:07:09.783Z,10.00
2022-09-15T12:12:08.217Z,9.20
2022-09-15T12:17:08.125Z,7.20
2022-09-15T12:22:08.875Z,10.40
2022-09-15T12:27:09.563Z,10.20
2022-09-15T12:32:10.410Z,8.30
2022-09-15T12:37:11.334Z,9.20
2022-09-15T12:42:11.668Z,9.20
2022-09-15T12:47:12.337Z,9.50
2022-09-15T12:52:13.064Z,7.20
2022-09-15T12:57:13.829Z,7.50
2022-09-15T13:02:14.634Z,10.70
2022-09-15T13:07:15.480Z,9.60
2022-09-15T13:12:16.293Z,7.40
2022-09-15T13:17:16.998Z,8.60
2022-09-15T13:22:17.907Z,7.70
2022-09-15T13:27:18.750Z,8.10
2022-09-15T13:32:19.925Z,6.10
2022-09-15T13:42:21.678Z,6.30
2022-09-15T13:47:21.364Z,6.90
2022-09-15T13:52:22.152Z,10.30
2022-09-15T13:58:54.606Z,8.50
2022-09-15T14:02:24.407Z,8.30
2022-09-15T14:07:24.181Z,8.70
2022-09-15T14:12:24.873Z,9.20
2022-09-15T14:17:25.551Z,8.70
2022-09-15T14:22:26.302Z,6.60
2022-09-15T14:27:26.984Z,6.40
2022-09-15T14:32:27.751Z,6.20
2022-09-15T14:37:28.694Z,8.70
2022-09-15T14:42:29.445Z,8.80
2022-09-15T14:47:30.163Z,9.90
2022-09-15T14:52:30.968Z,7.50
2022-09-15T14:57:31.995Z,9.10
2022-09-15T15:02:32.469Z,7.50
2022-09-15T15:07:32.822Z,8.80
2022-09-15T15:12:33.507Z,8.80
2022-09-15T15:17:34.252Z,5.60
2022-09-15T15:22:35.380Z,7.40
2022-09-15T15:27:35.523Z,6.10
2022-09-15T15:32:36.766Z,6.80
2022-09-15T15:37:37.114Z,7.40
2022-09-15T15:42:37.868Z,6.50
2022-09-15T15:47:38.664Z,6.40
2022-09-15T15:52:39.540Z,6.40
2022-09-15T15:57:40.352Z,4.00
2022-09-15T16:02:41.154Z,4.70
2022-09-15T16:07:41.970Z,4.40
2022-09-15T16:12:42.634Z,3.80
2022-09-15T16:17:46.636Z,4.40
2022-09-15T16:22:44.117Z,6.30
2022-09-15T16:27:44.806Z,5.50
2022-09-15T16:32:45.660Z,5.60
2022-09-15T16:37:46.338Z,5.80
2022-09-15T16:42:47.275Z,6.40
2022-09-15T16:47:48.045Z,6.10
2022-09-15T16:52:48.990Z,7.00
2022-09-15T16:57:49.827Z,4.30
2022-09-15T17:02:50.699Z,7.70
2022-09-15T17:07:51.545Z,6.40
2022-09-15T17:12:52.346Z,6.80
2022-09-15T17:17:59.933Z,4.90
2022-09-15T17:22:53.674Z,6.20
2022-09-15T17:27:54.861Z,5.90
2022-09-15T17:32:55.084Z,7.40
2022-09-15T17:37:55.762Z,13.20
2022-09-15T17:42:56.433Z,4.30
2022-09-15T17:47:57.128Z,7.70
2022-09-15T17:52:58.952Z,6.20
2022-09-15T17:57:58.826Z,6.00
2022-09-15T18:02:59.321Z,6.30
2022-09-15T18:08:00.154Z,5.90
2022-09-15T18:13:00.903Z,6.90
2022-09-15T18:18:01.648Z,6.70
2022-09-15T18:23:02.373Z,6.00
2022-09-15T18:28:03.160Z,5.10
2022-09-15T18:33:03.919Z,5.20
2022-09-15T18:38:04.721Z,5.60
2022-09-15T18:43:05.378Z,4.80
2022-09-15T18:48:10.429Z,5.90
2022-09-15T18:53:07.789Z,5.20
2022-09-15T18:58:08.531Z,5.70
2022-09-15T19:03:08.466Z,5.20
2022-09-15T19:08:09.320Z,5.30
2022-09-15T19:13:10.166Z,5.90
2022-09-15T19:18:10.936Z,9.20
2022-09-15T19:23:11.728Z,6.40
2022-09-15T19:28:12.523Z,7.00
2022-09-15T19:33:13.281Z,6.40
2022-09-15T19:38:14.032Z,7.10
2022-09-15T19:43:14.753Z,7.10
2022-09-15T19:48:15.555Z,5.70
2022-09-15T19:53:16.321Z,7.40
2022-09-15T19:58:17.053Z,7.00
2022-09-15T20:03:17.789Z,5.60
2022-09-15T20:08:18.526Z,7.00
2022-09-15T20:13:19.211Z,7.20
2022-09-15T20:18:19.970Z,6.00
2022-09-15T20:23:20.696Z,6.00
2022-09-15T20:28:21.426Z,7.40
2022-09-15T20:33:22.163Z,6.40
2022-09-15T20:38:22.883Z,8.00
2022-09-15T20:43:23.672Z,5.70
2022-09-15T20:48:24.492Z,6.40
2022-09-15T20:53:25.229Z,8.90
2022-09-15T20:58:25.995Z,6.30
2022-09-15T21:03:26.724Z,7.50
2022-09-15T21:08:27.499Z,7.70
2022-09-15T21:13:28.238Z,6.50
2022-09-15T21:18:28.979Z,9.20
2022-09-15T21:23:29.695Z,6.00
2022-09-15T21:28:30.402Z,5.00
2022-09-15T21:33:31.123Z,6.30
2022-09-15T21:38:31.833Z,5.80
2022-09-15T21:43:32.671Z,6.00
2022-09-15T21:48:33.395Z,6.40
2022-09-15T21:53:34.106Z,6.90
2022-09-15T21:58:36.979Z,5.30
2022-09-15T22:03:36.471Z,7.50
2022-09-15T22:08:36.159Z,5.70
2022-09-15T22:13:36.914Z,7.80
2022-09-15T22:18:37.639Z,8.00
2022-09-15T22:23:38.346Z,6.50
2022-09-15T22:28:39.087Z,6.40
2022-09-15T22:33:39.888Z,7.50
2022-09-15T22:38:40.608Z,8.00
2022-09-15T22:43:41.307Z,6.90
2022-09-15T22:48:43.632Z,6.10
2022-09-15T22:53:43.078Z,7.30
2022-09-15T22:58:43.768Z,7.00
2022-09-15T23:03:44.494Z,7.00
2022-09-15T23:08:45.261Z,6.80
2022-09-15T23:13:45.960Z,5.70
2022-09-15T23:18:46.715Z,6.60
2022-09-15T23:23:47.497Z,5.20
2022-09-15T23:28:48.166Z,9.20
2022-09-15T23:33:48.891Z,5.70
2022-09-15T23:38:49.662Z,6.50
2022-09-15T23:43:50.331Z,7.40
2022-09-15T23:48:51.125Z,6.30
2022-09-15T23:53:51.862Z,7.70
2022-09-15T23:58:52.589Z,7.10
